createdAt,value
2023-04-12T00:01:07.332Z,98423.63
2023-04-12T00:03:34.917Z,98423.19
2023-04-12T00:06:03.679Z,98428.22
2023-04-12T00:08:33.939Z,98427.28
2023-04-12T00:11:02.981Z,98434.88
2023-04-12T00:13:30.645Z,98429.06
2023-04-12T00:15:57.576Z,98441.66
2023-04-12T00:18:25.903Z,98439.97
2023-04-12T00:20:53.464Z,98430.47
2023-04-12T00:23:20.907Z,98431.41
2023-04-12T00:25:48.252Z,98425.81
2023-04-12T00:28:18.857Z,98434.09
2023-04-12T00:30:46.575Z,98439.19
2023-04-12T00:33:13.581Z,98442.50
2023-04-12T00:35:40.579Z,98440.28
2023-04-12T00:38:11.028Z,98437.59
2023-04-12T00:40:43.020Z,98430.56
2023-04-12T00:43:19.008Z,98434.09
2023-04-12T00:45:47.497Z,98442.16
2023-04-12T00:48:16.461Z,98436.66
2023-04-12T00:50:45.039Z,98442.38
2023-04-12T00:53:14.483Z,98447.03
2023-04-12T00:55:44.920Z,98441.19
2023-04-12T00:58:12.430Z,98438.34
2023-04-12T01:00:39.379Z,98438.25
2023-04-12T01:03:08.683Z,98438.16
2023-04-12T01:05:49.416Z,98440.13
2023-04-12T01:08:49.121Z,98445.16
2023-04-12T01:11:29.389Z,98444.25
2023-04-12T01:14:07.929Z,98456.72
2023-04-12T01:16:44.665Z,98438.25
2023-04-12T01:19:31.786Z,98448.88
2023-04-12T01:22:19.155Z,98447.28
2023-04-12T01:25:13.217Z,98437.97
2023-04-12T01:27:47.023Z,98440.47
2023-04-12T01:30:18.280Z,98449.53
2023-04-12T01:32:51.813Z,98444.25
2023-04-12T01:35:21.933Z,98450.34
2023-04-12T01:37:48.900Z,98452.19
2023-04-12T01:40:16.318Z,98450.25
2023-04-12T01:42:43.214Z,98446.72
2023-04-12T01:45:10.818Z,98448.00
2023-04-12T01:47:38.802Z,98450.69
2023-04-12T01:50:08.647Z,98453.31
2023-04-12T01:52:41.392Z,98448.22
2023-04-12T01:55:10.717Z,98453.84
2023-04-12T01:57:39.249Z,98453.03
2023-04-12T02:00:11.086Z,98452.28
2023-04-12T02:02:40.269Z,98455.72
2023-04-12T02:05:09.777Z,98453.84
2023-04-12T02:07:37.561Z,98447.97
2023-04-12T02:10:04.877Z,98447.28
2023-04-12T02:12:32.098Z,98443.63
2023-04-12T02:14:59.008Z,98441.56
2023-04-12T02:17:26.124Z,98440.19
2023-04-12T02:19:53.199Z,98437.50
2023-04-12T02:22:20.103Z,98431.78
2023-04-12T02:24:48.032Z,98421.06
2023-04-12T02:27:14.890Z,98421.81
2023-04-12T02:29:41.757Z,98416.06
2023-04-12T02:32:08.591Z,98412.72
2023-04-12T02:34:36.899Z,98416.53
2023-04-12T02:37:04.961Z,98408.47
2023-04-12T02:39:32.530Z,98398.97
2023-04-12T02:41:59.417Z,98402.00
2023-04-12T02:44:26.339Z,98396.84
2023-04-12T02:46:53.287Z,98399.25
2023-04-12T02:49:20.352Z,98403.03
2023-04-12T02:51:47.495Z,98399.31
2023-04-12T02:54:14.732Z,98399.91
2023-04-12T02:56:41.577Z,98394.81
2023-04-12T02:59:08.560Z,98388.63
2023-04-12T03:01:35.693Z,98390.56
2023-04-12T03:04:02.735Z,98385.56
2023-04-12T03:06:30.721Z,98380.19
2023-04-12T03:08:58.340Z,98373.53
2023-04-12T03:11:25.186Z,98368.53
2023-04-12T03:13:52.844Z,98372.44
2023-04-12T03:16:26.345Z,98364.75
2023-04-12T03:18:53.314Z,98372.06
2023-04-12T03:21:20.364Z,98361.50
2023-04-12T03:23:47.229Z,98363.72
2023-04-12T03:26:14.406Z,98361.06
2023-04-12T03:28:41.661Z,98352.06
2023-04-12T03:31:08.983Z,98353.56
2023-04-12T03:33:36.243Z,98350.44
2023-04-12T03:36:03.480Z,98350.31
2023-04-12T03:38:30.700Z,98338.31
2023-04-12T03:40:57.620Z,98346.16
2023-04-12T03:43:24.478Z,98341.16
2023-04-12T03:45:51.720Z,98331.66
2023-04-12T03:48:18.674Z,98331.28
2023-04-12T03:50:45.727Z,98332.88
2023-04-12T03:53:12.887Z,98332.56
2023-04-12T03:55:39.790Z,98340.59
2023-04-12T03:58:06.865Z,98339.78
2023-04-12T04:00:34.037Z,98335.97
2023-04-12T04:03:03.775Z,98325.75
2023-04-12T04:05:31.596Z,98330.25
2023-04-12T04:08:02.826Z,98322.59
2023-04-12T04:10:30.088Z,98330.16
2023-04-12T04:12:57.041Z,98323.94
2023-04-12T04:15:26.092Z,98314.44
2023-04-12T04:17:53.076Z,98311.94
2023-04-12T04:20:20.800Z,98299.78
2023-04-12T04:22:50.345Z,98300.97
2023-04-12T04:25:17.253Z,98299.94
2023-04-12T04:27:47.386Z,98302.63
2023-04-12T04:30:15.543Z,98298.47
2023-04-12T04:32:43.425Z,98294.94
2023-04-12T04:35:10.393Z,98298.81
2023-04-12T04:37:37.383Z,98297.34
2023-04-12T04:40:24.396Z,98301.31
2023-04-12T04:42:58.094Z,98301.66
2023-04-12T04:45:27.068Z,98294.19
2023-04-12T04:47:57.264Z,98291.53
2023-04-12T04:50:26.920Z,98290.69
2023-04-12T04:52:54.160Z,98282.47
2023-04-12T04:55:28.115Z,98280.81
2023-04-12T04:57:54.968Z,98279.34
2023-04-12T05:00:22.072Z,98281.19
2023-04-12T05:02:49.040Z,98275.81
2023-04-12T05:05:16.262Z,98278.50
2023-04-12T05:07:43.753Z,98280.34
2023-04-12T05:10:11.784Z,98276.69
2023-04-12T05:12:38.826Z,98280.69
2023-04-12T05:15:11.587Z,98270.84
2023-04-12T05:17:39.095Z,98271.84
2023-04-12T05:20:08.628Z,98267.16
2023-04-12T05:22:35.935Z,98266.03
2023-04-12T05:25:04.335Z,98263.34
2023-04-12T05:27:31.474Z,98266.03
2023-04-12T05:29:58.594Z,98251.66
2023-04-12T05:32:26.410Z,98249.34
2023-04-12T05:34:53.385Z,98247.31
2023-04-12T05:37:20.649Z,98247.31
2023-04-12T05:39:47.505Z,98238.81
2023-04-12T05:42:14.361Z,98242.34
2023-04-12T05:44:41.812Z,98236.63
2023-04-12T05:47:08.728Z,98234.59
2023-04-12T05:49:35.803Z,98241.22
2023-04-12T05:52:03.902Z,98251.56
2023-04-12T05:54:31.130Z,98239.44
2023-04-12T05:56:58.077Z,98246.00
2023-04-12T05:59:24.965Z,98256.38
2023-04-12T06:01:51.892Z,98253.66
2023-04-12T06:04:19.045Z,98250.63
2023-04-12T06:06:46.126Z,98254.69
2023-04-12T06:09:13.465Z,98245.25
2023-04-12T06:11:40.408Z,98246.22
2023-04-12T06:14:08.040Z,98243.50
2023-04-12T06:16:36.289Z,98245.38
2023-04-12T06:19:03.325Z,98235.16
2023-04-12T06:21:30.306Z,98247.63
2023-04-12T06:23:57.272Z,98241.28
2023-04-12T06:26:24.502Z,98242.94
2023-04-12T06:28:54.598Z,98224.72
2023-04-12T06:31:21.892Z,98221.31
2023-04-12T06:33:50.574Z,98212.34
2023-04-12T06:36:17.812Z,98220.47
2023-04-12T06:38:44.766Z,98200.25
2023-04-12T06:41:12.205Z,98192.63
2023-04-12T06:43:39.119Z,98193.06
2023-04-12T06:46:06.625Z,98176.16
2023-04-12T06:48:33.776Z,98168.34
2023-04-12T06:51:00.719Z,98165.59
2023-04-12T06:53:27.648Z,98167.47
2023-04-12T06:55:54.584Z,98155.28
2023-04-12T06:58:21.477Z,98154.50
2023-04-12T07:00:48.498Z,98158.41
2023-04-12T07:03:15.629Z,98160.75
2023-04-12T07:05:47.597Z,98149.34
2023-04-12T07:08:14.536Z,98150.81
2023-04-12T07:10:41.877Z,98150.63
2023-04-12T07:13:08.788Z,98137.19
2023-04-12T07:15:35.745Z,98135.50
2023-04-12T07:18:02.726Z,98132.84
2023-04-12T07:20:29.671Z,98121.22
2023-04-12T07:22:56.907Z,98125.56
2023-04-12T07:25:23.857Z,98124.97
2023-04-12T07:27:51.782Z,98125.56
2023-04-12T07:30:19.102Z,98117.47
2023-04-12T07:32:46.249Z,98116.22
2023-04-12T07:35:13.350Z,98120.94
2023-04-12T07:37:40.526Z,98106.84
2023-04-12T07:40:08.261Z,98102.03
2023-04-12T07:42:35.162Z,98095.38
2023-04-12T07:45:02.090Z,98086.97
2023-04-12T07:47:29.170Z,98080.69
2023-04-12T07:49:57.696Z,98068.34
2023-04-12T07:52:25.458Z,98080.50
2023-04-12T07:54:52.320Z,98076.50
2023-04-12T07:57:19.159Z,98075.78
2023-04-12T07:59:46.029Z,98105.97
2023-04-12T08:02:13.257Z,98087.78
2023-04-12T08:04:44.460Z,98086.66
2023-04-12T08:07:11.732Z,98079.41
2023-04-12T08:09:39.025Z,98069.72
2023-04-12T08:12:06.158Z,98063.66
2023-04-12T08:14:33.061Z,98040.97
2023-04-12T08:16:59.934Z,98031.69
2023-04-12T08:19:27.493Z,98030.31
2023-04-12T08:21:54.834Z,98016.97
2023-04-12T08:24:21.788Z,98027.22
2023-04-12T08:26:48.699Z,98010.69
2023-04-12T08:29:16.111Z,98012.44
2023-04-12T08:31:43.222Z,97997.44
2023-04-12T08:34:10.271Z,97993.53
2023-04-12T08:36:37.203Z,97982.88
2023-04-12T08:39:04.246Z,97957.75
2023-04-12T08:41:31.586Z,97949.78
2023-04-12T08:43:59.971Z,97948.78
2023-04-12T08:46:28.450Z,97943.38
2023-04-12T08:48:55.607Z,97944.19
2023-04-12T08:51:23.130Z,97935.47
2023-04-12T08:53:51.210Z,97930.59
2023-04-12T08:56:19.444Z,97899.13
2023-04-12T08:58:51.480Z,97903.84
2023-04-12T09:01:21.220Z,97904.44
2023-04-12T09:03:48.494Z,97900.91
2023-04-12T09:06:15.948Z,97897.09
2023-04-12T09:08:57.136Z,97890.03
2023-04-12T09:11:27.529Z,97883.13
2023-04-12T09:13:58.949Z,97878.06
2023-04-12T09:16:41.523Z,97872.50
2023-04-12T09:19:10.109Z,97851.97
2023-04-12T09:21:37.401Z,97858.03
2023-04-12T09:24:13.362Z,97851.09
2023-04-12T09:26:41.054Z,97848.31
2023-04-12T09:29:24.937Z,97847.06
2023-04-12T09:31:58.504Z,97826.59
2023-04-12T09:34:26.644Z,97829.59
2023-04-12T09:36:54.812Z,97826.25
2023-04-12T09:39:34.538Z,97819.94
2023-04-12T09:42:25.445Z,97797.78
2023-04-12T09:44:58.950Z,97777.16
2023-04-12T09:47:40.563Z,97769.81
2023-04-12T09:50:10.231Z,97752.75
2023-04-12T09:52:41.045Z,97746.19
2023-04-12T09:55:11.961Z,97744.47
2023-04-12T09:57:42.429Z,97743.81
2023-04-12T10:00:18.882Z,97724.13
2023-04-12T10:02:52.779Z,97712.16
2023-04-12T10:05:28.367Z,97701.72
2023-04-12T10:07:57.011Z,97697.59
2023-04-12T10:10:24.336Z,97701.81
2023-04-12T10:12:51.878Z,97688.09
2023-04-12T10:15:21.461Z,97678.91
2023-04-12T10:17:52.760Z,97665.06
2023-04-12T10:20:23.354Z,97668.81
2023-04-12T10:22:53.542Z,97659.44
2023-04-12T10:25:24.046Z,97678.56
2023-04-12T10:27:51.577Z,97685.69
2023-04-12T10:30:38.748Z,97684.00
2023-04-12T10:33:05.811Z,97677.91
2023-04-12T10:36:01.150Z,97684.44
2023-04-12T10:38:32.979Z,97677.34
2023-04-12T10:41:16.006Z,97661.75
2023-04-12T10:43:46.383Z,97652.25
2023-04-12T10:46:38.881Z,97642.94
2023-04-12T10:49:14.641Z,97646.97
2023-04-12T10:52:02.074Z,97621.81
2023-04-12T10:54:29.817Z,97634.31
2023-04-12T10:56:57.700Z,97632.78
2023-04-12T10:59:31.426Z,97621.06
2023-04-12T11:02:12.765Z,97615.41
2023-04-12T11:05:10.540Z,97605.78
2023-04-12T11:07:43.246Z,97584.38
2023-04-12T11:10:20.303Z,97579.47
2023-04-12T11:12:54.888Z,97584.66
2023-04-12T11:15:25.989Z,97578.69
2023-04-12T11:17:57.959Z,97567.47
2023-04-12T11:20:30.143Z,97558.88
2023-04-12T11:22:57.394Z,97546.84
2023-04-12T11:25:24.873Z,97531.69
2023-04-12T11:27:55.005Z,97527.91
2023-04-12T11:30:23.764Z,97524.88
2023-04-12T11:32:50.931Z,97533.31
2023-04-12T11:35:20.679Z,97532.41
2023-04-12T11:37:48.095Z,97531.00
2023-04-12T11:40:15.299Z,97515.16
2023-04-12T11:42:42.737Z,97506.03
2023-04-12T11:45:17.200Z,97503.41
2023-04-12T11:47:46.837Z,97493.66
2023-04-12T11:50:13.939Z,97478.28
2023-04-12T11:52:41.513Z,97481.28
2023-04-12T11:55:11.438Z,97474.47
2023-04-12T11:57:40.048Z,97474.69
2023-04-12T12:00:07.864Z,97480.69
2023-04-12T12:02:43.690Z,97467.09
2023-04-12T12:05:17.048Z,97448.97
2023-04-12T12:07:44.402Z,97445.22
2023-04-12T12:10:16.404Z,97447.56
2023-04-12T12:12:48.329Z,97454.97
2023-04-12T12:15:16.811Z,97456.38
2023-04-12T12:17:43.999Z,97429.19
2023-04-12T12:20:21.862Z,97449.25
2023-04-12T12:22:49.486Z,97428.72
2023-04-12T12:25:19.352Z,97413.56
2023-04-12T12:27:50.629Z,97419.31
2023-04-12T12:30:20.548Z,97403.97
2023-04-12T12:32:52.642Z,97383.78
2023-04-12T12:35:19.711Z,97385.38
2023-04-12T12:37:52.801Z,97374.25
2023-04-12T12:40:31.762Z,97386.06
2023-04-12T12:42:58.899Z,97367.19
2023-04-12T12:45:28.406Z,97370.69
2023-04-12T12:47:58.927Z,97383.19
2023-04-12T12:50:34.537Z,97364.13
2023-04-12T12:53:02.514Z,97366.41
2023-04-12T12:55:31.341Z,97354.97
2023-04-12T13:00:30.025Z,97338.78
2023-04-12T13:02:57.285Z,97333.56
2023-04-12T13:05:24.698Z,97336.81
2023-04-12T13:07:51.592Z,97339.28
2023-04-12T13:10:18.488Z,97334.03
2023-04-12T13:12:46.250Z,97335.03
2023-04-12T13:17:44.165Z,97331.22
2023-04-12T13:20:11.355Z,97339.41
2023-04-12T13:22:38.337Z,97349.69
2023-04-12T13:25:05.859Z,97351.47
2023-04-12T13:27:33.198Z,97353.16
2023-04-12T13:30:00.505Z,97344.16
2023-04-12T13:32:27.700Z,97327.78
2023-04-12T13:34:54.760Z,97336.53
2023-04-12T13:37:21.679Z,97327.09
2023-04-12T13:39:50.567Z,97325.38
2023-04-12T13:42:17.528Z,97340.28
2023-04-12T13:44:44.598Z,97335.97
2023-04-12T13:47:11.694Z,97347.34
2023-04-12T13:49:38.754Z,97351.69
2023-04-12T13:52:06.035Z,97355.44
2023-04-12T13:54:33.309Z,97349.13
2023-04-12T13:57:00.475Z,97349.72
2023-04-12T13:59:27.375Z,97359.53
2023-04-12T14:01:54.824Z,97364.44
2023-04-12T14:04:22.307Z,97357.78
2023-04-12T14:06:49.791Z,97363.53
2023-04-12T14:09:30.289Z,97354.75
2023-04-12T14:11:59.210Z,97356.75
2023-04-12T14:14:27.729Z,97366.09
2023-04-12T14:16:59.146Z,97367.66
2023-04-12T14:19:26.706Z,97360.38
2023-04-12T14:21:53.937Z,97357.06
2023-04-12T14:24:22.206Z,97350.72
2023-04-12T14:26:50.430Z,97359.25
2023-04-12T14:29:17.817Z,97367.19
2023-04-12T14:31:44.932Z,97361.91
2023-04-12T14:34:13.758Z,97337.50
2023-04-12T14:36:41.188Z,97344.78
2023-04-12T14:39:11.640Z,97347.09
2023-04-12T14:41:40.769Z,97360.94
2023-04-12T14:44:07.629Z,97353.31
2023-04-12T14:46:34.569Z,97358.66
2023-04-12T14:49:01.782Z,97353.78
2023-04-12T14:51:29.856Z,97360.28
2023-04-12T14:53:57.581Z,97374.69
2023-04-12T14:56:28.855Z,97374.25
2023-04-12T14:58:57.578Z,97364.88
2023-04-12T15:01:26.099Z,97379.28
2023-04-12T15:03:53.878Z,97387.28
2023-04-12T15:06:26.198Z,97389.50
2023-04-12T15:08:57.561Z,97396.28
2023-04-12T15:11:27.470Z,97389.56
2023-04-12T15:13:55.677Z,97403.75
2023-04-12T15:16:23.431Z,97405.50
2023-04-12T15:18:52.052Z,97409.75
2023-04-12T15:21:19.504Z,97409.56
2023-04-12T15:23:47.556Z,97426.91
2023-04-12T15:26:14.636Z,97441.72
2023-04-12T15:28:42.497Z,97426.91
2023-04-12T15:31:09.850Z,97436.31
2023-04-12T15:33:37.523Z,97438.75
2023-04-12T15:36:05.743Z,97438.53
2023-04-12T15:38:32.758Z,97445.00
2023-04-12T15:41:01.710Z,97438.06
2023-04-12T15:43:29.242Z,97442.19
2023-04-12T15:45:57.286Z,97442.31
2023-04-12T15:48:25.960Z,97439.50
2023-04-12T15:50:56.026Z,97440.78
2023-04-12T15:53:27.749Z,97444.75
2023-04-12T15:55:55.368Z,97453.31
2023-04-12T15:58:27.507Z,97445.56
2023-04-12T16:00:54.983Z,97449.44
2023-04-12T16:03:27.017Z,97453.16
2023-04-12T16:05:54.456Z,97465.53
2023-04-12T16:08:22.869Z,97461.88
2023-04-12T16:10:51.581Z,97468.56
2023-04-12T16:13:18.910Z,97470.19
2023-04-12T16:15:47.374Z,97464.78
2023-04-12T16:18:14.616Z,97480.63
2023-04-12T16:20:42.174Z,97482.41
2023-04-12T16:23:10.952Z,97482.16
2023-04-12T16:25:38.714Z,97484.75
2023-04-12T16:28:08.019Z,97484.91
2023-04-12T16:30:36.219Z,97493.13
2023-04-12T16:33:04.420Z,97486.19
2023-04-12T16:35:32.826Z,97488.28
2023-04-12T16:38:03.350Z,97490.00
2023-04-12T16:40:31.166Z,97493.06
2023-04-12T16:42:58.633Z,97500.56
2023-04-12T16:45:26.692Z,97514.66
2023-04-12T16:47:54.650Z,97517.13
2023-04-12T16:50:24.153Z,97533.69
2023-04-12T16:52:51.913Z,97528.66
2023-04-12T16:55:19.034Z,97521.28
2023-04-12T16:57:46.558Z,97533.97
2023-04-12T17:00:23.008Z,97534.19
2023-04-12T17:02:52.619Z,97534.78
2023-04-12T17:05:22.161Z,97545.56
2023-04-12T17:07:54.905Z,97539.00
2023-04-12T17:10:24.825Z,97543.69
2023-04-12T17:12:56.055Z,97556.91
2023-04-12T17:15:23.754Z,97565.53
2023-04-12T17:18:03.290Z,97557.41
2023-04-12T17:20:32.273Z,97567.25
2023-04-12T17:23:00.892Z,97557.84
2023-04-12T17:25:33.567Z,97569.50
2023-04-12T17:28:12.090Z,97563.50
2023-04-12T17:30:40.805Z,97571.34
2023-04-12T17:33:09.136Z,97573.09
2023-04-12T17:35:37.630Z,97579.78
2023-04-12T17:38:05.322Z,97589.78
2023-04-12T17:40:36.281Z,97586.84
2023-04-12T17:43:04.435Z,97597.53
2023-04-12T17:45:32.446Z,97602.41
2023-04-12T17:48:00.124Z,97618.03
2023-04-12T17:50:27.411Z,97619.91
2023-04-12T17:52:56.764Z,97614.38
2023-04-12T17:55:26.947Z,97621.53
2023-04-12T17:57:54.540Z,97627.06
2023-04-12T18:00:23.955Z,97627.88
2023-04-12T18:02:51.749Z,97632.44
2023-04-12T18:05:19.243Z,97650.59
2023-04-12T18:07:46.292Z,97655.41
2023-04-12T18:10:16.285Z,97652.56
2023-04-12T18:12:45.413Z,97657.00
2023-04-12T18:15:12.947Z,97658.72
2023-04-12T18:17:40.114Z,97665.28
2023-04-12T18:20:10.964Z,97658.53
2023-04-12T18:22:39.324Z,97672.56
2023-04-12T18:25:08.445Z,97675.25
2023-04-12T18:27:36.056Z,97689.22
2023-04-12T18:30:03.626Z,97685.78
2023-04-12T18:32:30.994Z,97695.19
2023-04-12T18:34:58.164Z,97704.03
2023-04-12T18:37:25.212Z,97711.94
2023-04-12T18:39:53.460Z,97715.72
2023-04-12T18:42:20.611Z,97723.19
2023-04-12T18:44:47.803Z,97722.03
2023-04-12T18:47:14.729Z,97732.59
2023-04-12T18:49:41.721Z,97733.63
2023-04-12T18:52:08.927Z,97742.81
2023-04-12T18:54:35.973Z,97750.69
2023-04-12T18:57:03.919Z,97766.69
2023-04-12T18:59:31.414Z,97769.38
2023-04-12T19:01:58.562Z,97776.66
2023-04-12T19:04:25.697Z,97790.38
2023-04-12T19:06:53.376Z,97791.19
2023-04-12T19:09:20.704Z,97796.19
2023-04-12T19:11:47.772Z,97807.38
2023-04-12T19:14:14.999Z,97806.38
2023-04-12T19:16:42.093Z,97818.81
2023-04-12T19:19:09.098Z,97830.47
2023-04-12T19:21:36.543Z,97840.84
2023-04-12T19:24:03.985Z,97855.94
2023-04-12T19:26:32.722Z,97851.22
2023-04-12T19:28:59.946Z,97863.41
2023-04-12T19:31:27.327Z,97869.00
2023-04-12T19:33:56.154Z,97869.28
2023-04-12T19:36:26.153Z,97881.50
2023-04-12T19:38:53.233Z,97889.78
2023-04-12T19:41:20.967Z,97901.03
2023-04-12T19:43:48.086Z,97905.59
2023-04-12T19:46:16.405Z,97917.22
2023-04-12T19:48:43.510Z,97933.34
2023-04-12T19:51:10.577Z,97927.81
2023-04-12T19:53:37.831Z,97944.16
2023-04-12T19:56:05.375Z,97942.50
2023-04-12T19:58:32.541Z,97954.28
2023-04-12T20:01:03.064Z,97961.34
2023-04-12T20:03:30.696Z,97964.84
2023-04-12T20:06:04.403Z,97970.22
2023-04-12T20:08:32.338Z,97981.41
2023-04-12T20:11:00.747Z,97982.22
2023-04-12T20:13:29.015Z,97992.78
2023-04-12T20:15:56.727Z,97994.41
2023-04-12T20:18:24.774Z,97997.34
2023-04-12T20:20:53.666Z,98004.97
2023-04-12T20:23:20.848Z,98013.66
2023-04-12T20:25:49.537Z,98017.41
2023-04-12T20:28:16.984Z,98021.91
2023-04-12T20:30:47.271Z,98024.41
2023-04-12T20:33:15.552Z,98027.09
2023-04-12T20:35:42.919Z,98034.75
2023-04-12T20:38:10.307Z,98038.06
2023-04-12T20:40:38.234Z,98045.91
2023-04-12T20:43:06.309Z,98048.00
2023-04-12T20:45:35.702Z,98050.50
2023-04-12T20:48:04.410Z,98048.78
2023-04-12T20:50:34.643Z,98053.56
2023-04-12T20:53:02.922Z,98070.13
2023-04-12T20:55:33.158Z,98066.19
2023-04-12T20:58:01.549Z,98066.19
2023-04-12T21:00:29.923Z,98069.53
2023-04-12T21:02:58.439Z,98078.22
2023-04-12T21:05:27.649Z,98081.09
2023-04-12T21:07:55.129Z,98095.75
2023-04-12T21:10:22.490Z,98090.97
2023-04-12T21:12:50.401Z,98091.00
2023-04-12T21:15:22.235Z,98094.28
2023-04-12T21:17:50.942Z,98100.28
2023-04-12T21:20:18.771Z,98113.69
2023-04-12T21:22:48.027Z,98110.84
2023-04-12T21:25:17.050Z,98113.28
2023-04-12T21:27:46.609Z,98125.72
2023-04-12T21:30:14.625Z,98126.13
2023-04-12T21:32:42.347Z,98121.34
2023-04-12T21:35:11.394Z,98133.78
2023-04-12T21:37:39.599Z,98133.97
2023-04-12T21:40:12.967Z,98136.88
2023-04-12T21:42:41.261Z,98145.13
2023-04-12T21:45:10.062Z,98155.09
2023-04-12T21:47:39.889Z,98149.91
2023-04-12T21:50:10.993Z,98153.84
2023-04-12T21:52:38.691Z,98138.09
2023-04-12T21:55:06.170Z,98149.91
2023-04-12T21:57:34.545Z,98152.59
2023-04-12T22:00:05.497Z,98162.94
2023-04-12T22:02:32.744Z,98162.09
2023-04-12T22:04:59.803Z,98169.97
2023-04-12T22:07:26.963Z,98179.28
2023-04-12T22:09:53.989Z,98187.16
2023-04-12T22:12:21.438Z,98172.47
2023-04-12T22:14:50.140Z,98185.09
2023-04-12T22:17:18.978Z,98188.19
2023-04-12T22:19:46.342Z,98187.78
2023-04-12T22:22:15.671Z,98192.13
2023-04-12T22:24:42.849Z,98189.00
2023-04-12T22:27:09.787Z,98195.25
2023-04-12T22:29:38.002Z,98187.19
2023-04-12T22:32:05.201Z,98195.69
2023-04-12T22:34:32.716Z,98183.28
2023-04-12T22:36:59.626Z,98185.56
2023-04-12T22:39:27.142Z,98187.84
2023-04-12T22:41:57.651Z,98188.03
2023-04-12T22:44:26.468Z,98198.59
2023-04-12T22:46:56.926Z,98209.78
2023-04-12T22:49:28.533Z,98200.25
2023-04-12T22:51:56.066Z,98204.41
2023-04-12T22:54:24.951Z,98199.16
2023-04-12T22:56:52.228Z,98211.56
2023-04-12T22:59:20.367Z,98220.03
2023-04-12T23:01:47.760Z,98222.72
2023-04-12T23:04:16.125Z,98234.72
2023-04-12T23:06:44.277Z,98238.22
2023-04-12T23:09:12.713Z,98236.97
2023-04-12T23:11:42.248Z,98242.34
2023-04-12T23:14:10.083Z,98236.59
2023-04-12T23:16:42.644Z,98258.09
2023-04-12T23:19:12.793Z,98264.25
2023-04-12T23:21:40.830Z,98275.44
2023-04-12T23:24:08.689Z,98274.63
2023-04-12T23:26:36.170Z,98277.31
2023-04-12T23:29:04.607Z,98279.75
2023-04-12T23:31:32.539Z,98278.94
2023-04-12T23:34:03.588Z,98277.94
2023-04-12T23:36:30.912Z,98278.16
2023-04-12T23:39:00.902Z,98288.69
2023-04-12T23:41:28.082Z,98297.81
2023-04-12T23:43:55.337Z,98287.25
2023-04-12T23:46:22.763Z,98288.97
2023-04-12T23:48:49.772Z,98302.84
2023-04-12T23:51:17.253Z,98297.06
2023-04-12T23:53:44.171Z,98302.66
2023-04-12T23:56:11.427Z,98303.69
2023-04-12T23:58:38.703Z,98306.63
